sensor_id;sensor_type;location;lat;lon;timestamp;pressure;altitude;pressure_sealevel;temperature;humidity
10470;BME280;5282;47.052;15.458;2023-01-19T00:00:44;95911.63;;;2.78;100.00
10470;BME280;5282;47.052;15.458;2023-01-19T00:03:11;95918.97;;;2.76;100.00
10470;BME280;5282;47.052;15.458;2023-01-19T00:05:41;95936.88;;;2.74;100.00
10470;BME280;5282;47.052;15.458;2023-01-19T00:08:10;95936.66;;;2.67;100.00
10470;BME280;5282;47.052;15.458;2023-01-19T00:10:43;95923.72;;;2.72;100.00
10470;BME280;5282;47.052;15.458;2023-01-19T00:13:11;95930.69;;;2.65;100.00
10470;BME280;5282;47.052;15.458;2023-01-19T00:15:38;95934.78;;;2.59;100.00
10470;BME280;5282;47.052;15.458;2023-01-19T00:18:08;95940.63;;;2.63;100.00
10470;BME280;5282;47.052;15.458;2023-01-19T00:20:35;95943.28;;;2.63;100.00
10470;BME280;5282;47.052;15.458;2023-01-19T00:23:02;95946.72;;;2.55;100.00
10470;BME280;5282;47.052;15.458;2023-01-19T00:25:30;95949.72;;;2.52;100.00
10470;BME280;5282;47.052;15.458;2023-01-19T00:27:57;95942.25;;;2.56;100.00
10470;BME280;5282;47.052;15.458;2023-01-19T00:30:25;95948.84;;;2.52;100.00
10470;BME280;5282;47.052;15.458;2023-01-19T00:32:51;95958.03;;;2.57;100.00
10470;BME280;5282;47.052;15.458;2023-01-19T00:35:18;95953.22;;;2.61;100.00
10470;BME280;5282;47.052;15.458;2023-01-19T00:37:45;95955.88;;;2.61;100.00
10470;BME280;5282;47.052;15.458;2023-01-19T00:40:12;95959.66;;;2.50;100.00
10470;BME280;5282;47.052;15.458;2023-01-19T00:42:41;95959.72;;;2.14;100.00
10470;BME280;5282;47.052;15.458;2023-01-19T00:45:11;95956.31;;;2.04;100.00
10470;BME280;5282;47.052;15.458;2023-01-19T00:47:38;95968.38;;;1.98;100.00
10470;BME280;5282;47.052;15.458;2023-01-19T00:50:06;95971.25;;;2.23;100.00
10470;BME280;5282;47.052;15.458;2023-01-19T00:52:36;95970.91;;;2.26;100.00
10470;BME280;5282;47.052;15.458;2023-01-19T00:55:03;95967.50;;;2.34;100.00
10470;BME280;5282;47.052;15.458;2023-01-19T00:57:31;95960.25;;;2.44;100.00
10470;BME280;5282;47.052;15.458;2023-01-19T00:59:59;95958.44;;;2.44;100.00
10470;BME280;5282;47.052;15.458;2023-01-19T01:02:26;95969.09;;;2.26;100.00
10470;BME280;5282;47.052;15.458;2023-01-19T01:04:53;95962.69;;;2.37;100.00
10470;BME280;5282;47.052;15.458;2023-01-19T01:07:21;95974.78;;;2.13;100.00
10470;BME280;5282;47.052;15.458;2023-01-19T01:09:48;95981.94;;;2.31;100.00
10470;BME280;5282;47.052;15.458;2023-01-19T01:12:17;95986.78;;;2.36;100.00
10470;BME280;5282;47.052;15.458;2023-01-19T01:14:44;95983.66;;;2.22;100.00
10470;BME280;5282;47.052;15.458;2023-01-19T01:17:12;95973.97;;;2.13;100.00
10470;BME280;5282;47.052;15.458;2023-01-19T01:19:39;95964.63;;;2.27;100.00
10470;BME280;5282;47.052;15.458;2023-01-19T01:22:07;95960.00;;;2.11;100.00
10470;BME280;5282;47.052;15.458;2023-01-19T01:24:34;95960.97;;;2.28;100.00
10470;BME280;5282;47.052;15.458;2023-01-19T01:27:02;95976.16;;;2.18;100.00
10470;BME280;5282;47.052;15.458;2023-01-19T01:29:29;95982.16;;;2.20;100.00
10470;BME280;5282;47.052;15.458;2023-01-19T01:31:58;95980.78;;;2.15;100.00
10470;BME280;5282;47.052;15.458;2023-01-19T01:34:26;95981.41;;;2.27;100.00
10470;BME280;5282;47.052;15.458;2023-01-19T01:36:53;95981.25;;;2.29;100.00
10470;BME280;5282;47.052;15.458;2023-01-19T01:39:20;95977.91;;;2.27;100.00
10470;BME280;5282;47.052;15.458;2023-01-19T01:41:47;95985.81;;;2.19;100.00
10470;BME280;5282;47.052;15.458;2023-01-19T01:44:46;95988.22;;;2.30;100.00
10470;BME280;5282;47.052;15.458;2023-01-19T01:47:23;95988.84;;;2.24;100.00
10470;BME280;5282;47.052;15.458;2023-01-19T01:50:02;95989.91;;;2.13;100.00
10470;BME280;5282;47.052;15.458;2023-01-19T01:52:33;95994.47;;;2.21;100.00
10470;BME280;5282;47.052;15.458;2023-01-19T01:55:02;95997.81;;;2.23;100.00
10470;BME280;5282;47.052;15.458;2023-01-19T01:57:33;95987.19;;;2.23;100.00
10470;BME280;5282;47.052;15.458;2023-01-19T02:00:02;95982.69;;;2.23;100.00
10470;BME280;5282;47.052;15.458;2023-01-19T02:02:31;95983.53;;;2.24;100.00
10470;BME280;5282;47.052;15.458;2023-01-19T02:05:27;95994.59;;;2.19;100.00
10470;BME280;5282;47.052;15.458;2023-01-19T02:07:59;96001.06;;;2.16;100.00
10470;BME280;5282;47.052;15.458;2023-01-19T02:10:46;95998.16;;;2.10;100.00
10470;BME280;5282;47.052;15.458;2023-01-19T02:13:35;95998.75;;;1.67;100.00
10470;BME280;5282;47.052;15.458;2023-01-19T02:16:06;95995.84;;;1.89;100.00
10470;BME280;5282;47.052;15.458;2023-01-19T02:18:34;95985.13;;;1.80;100.00
10470;BME280;5282;47.052;15.458;2023-01-19T02:21:09;95978.53;;;1.66;100.00
10470;BME280;5282;47.052;15.458;2023-01-19T02:23:40;95982.78;;;1.77;100.00
10470;BME280;5282;47.052;15.458;2023-01-19T02:26:09;95978.13;;;1.79;100.00
10470;BME280;5282;47.052;15.458;2023-01-19T02:28:40;95973.09;;;1.40;100.00
10470;BME280;5282;47.052;15.458;2023-01-19T02:31:09;95972.69;;;1.35;100.00
10470;BME280;5282;47.052;15.458;2023-01-19T02:33:36;95963.47;;;1.39;100.00
10470;BME280;5282;47.052;15.458;2023-01-19T02:36:05;95961.31;;;1.25;100.00
10470;BME280;5282;47.052;15.458;2023-01-19T02:38:34;95956.00;;;1.25;100.00
10470;BME280;5282;47.052;15.458;2023-01-19T02:41:06;95965.44;;;1.37;100.00
10470;BME280;5282;47.052;15.458;2023-01-19T02:43:35;95968.66;;;1.59;100.00
10470;BME280;5282;47.052;15.458;2023-01-19T02:46:03;95971.69;;;1.64;100.00
10470;BME280;5282;47.052;15.458;2023-01-19T02:48:30;95976.56;;;1.68;100.00
10470;BME280;5282;47.052;15.458;2023-01-19T02:50:58;95978.06;;;1.71;100.00
10470;BME280;5282;47.052;15.458;2023-01-19T02:53:58;95975.03;;;1.66;100.00
10470;BME280;5282;47.052;15.458;2023-01-19T02:56:37;95980.69;;;1.53;100.00
10470;BME280;5282;47.052;15.458;2023-01-19T02:59:13;95984.66;;;1.49;100.00
10470;BME280;5282;47.052;15.458;2023-01-19T03:01:55;95978.81;;;1.63;100.00
10470;BME280;5282;47.052;15.458;2023-01-19T03:04:28;95988.41;;;1.46;100.00
10470;BME280;5282;47.052;15.458;2023-01-19T03:07:04;95988.81;;;1.51;100.00
10470;BME280;5282;47.052;15.458;2023-01-19T03:09:37;95990.31;;;1.54;100.00
10470;BME280;5282;47.052;15.458;2023-01-19T03:12:15;95985.72;;;1.56;100.00
10470;BME280;5282;47.052;15.458;2023-01-19T03:14:48;95988.66;;;1.53;100.00
10470;BME280;5282;47.052;15.458;2023-01-19T03:17:17;96010.38;;;1.11;100.00
10470;BME280;5282;47.052;15.458;2023-01-19T03:19:47;96015.44;;;1.32;100.00
10470;BME280;5282;47.052;15.458;2023-01-19T03:22:19;96017.75;;;1.45;100.00
10470;BME280;5282;47.052;15.458;2023-01-19T03:24:48;96036.28;;;1.17;100.00
10470;BME280;5282;47.052;15.458;2023-01-19T03:27:21;96037.66;;;1.31;100.00
10470;BME280;5282;47.052;15.458;2023-01-19T03:29:52;96034.78;;;1.04;100.00
10470;BME280;5282;47.052;15.458;2023-01-19T03:32:26;96035.84;;;1.21;100.00
10470;BME280;5282;47.052;15.458;2023-01-19T03:34:56;96034.22;;;1.20;100.00
10470;BME280;5282;47.052;15.458;2023-01-19T03:37:26;96033.06;;;1.23;100.00
10470;BME280;5282;47.052;15.458;2023-01-19T03:39:54;96028.31;;;1.27;100.00
10470;BME280;5282;47.052;15.458;2023-01-19T03:42:23;96029.09;;;1.37;100.00
10470;BME280;5282;47.052;15.458;2023-01-19T03:44:51;96022.81;;;1.38;100.00
10470;BME280;5282;47.052;15.458;2023-01-19T03:47:20;96004.25;;;1.38;100.00
10470;BME280;5282;47.052;15.458;2023-01-19T03:49:49;95999.03;;;1.46;100.00
10470;BME280;5282;47.052;15.458;2023-01-19T03:52:26;95999.25;;;1.53;100.00
10470;BME280;5282;47.052;15.458;2023-01-19T03:54:53;95997.31;;;1.55;100.00
10470;BME280;5282;47.052;15.458;2023-01-19T03:57:20;95993.13;;;1.52;100.00
10470;BME280;5282;47.052;15.458;2023-01-19T03:59:48;95996.63;;;1.53;100.00
10470;BME280;5282;47.052;15.458;2023-01-19T04:02:15;95998.97;;;1.56;100.00
10470;BME280;5282;47.052;15.458;2023-01-19T04:04:42;95996.78;;;1.51;100.00
10470;BME280;5282;47.052;15.458;2023-01-19T04:07:09;96007.75;;;1.57;100.00
10470;BME280;5282;47.052;15.458;2023-01-19T04:09:36;96005.78;;;1.59;100.00
10470;BME280;5282;47.052;15.458;2023-01-19T04:12:06;96004.66;;;1.61;100.00
10470;BME280;5282;47.052;15.458;2023-01-19T04:14:33;96000.50;;;1.59;100.00
10470;BME280;5282;47.052;15.458;2023-01-19T04:17:01;96004.00;;;1.59;100.00
10470;BME280;5282;47.052;15.458;2023-01-19T04:19:28;96002.22;;;1.50;100.00
10470;BME280;5282;47.052;15.458;2023-01-19T04:21:55;96007.38;;;1.51;100.00
10470;BME280;5282;47.052;15.458;2023-01-19T04:24:22;96005.44;;;1.53;100.00
10470;BME280;5282;47.052;15.458;2023-01-19T04:26:50;96019.56;;;1.44;100.00
10470;BME280;5282;47.052;15.458;2023-01-19T04:29:18;96020.78;;;1.50;100.00
10470;BME280;5282;47.052;15.458;2023-01-19T04:31:45;96021.41;;;1.34;100.00
10470;BME280;5282;47.052;15.458;2023-01-19T04:34:13;96005.88;;;1.49;100.00
10470;BME280;5282;47.052;15.458;2023-01-19T04:36:40;96001.69;;;1.46;100.00
10470;BME280;5282;47.052;15.458;2023-01-19T04:39:09;95988.81;;;1.51;100.00
10470;BME280;5282;47.052;15.458;2023-01-19T04:41:36;95983.81;;;1.48;100.00
10470;BME280;5282;47.052;15.458;2023-01-19T04:44:03;95989.81;;;1.68;100.00
10470;BME280;5282;47.052;15.458;2023-01-19T04:46:30;95999.22;;;1.63;100.00
10470;BME280;5282;47.052;15.458;2023-01-19T04:48:57;96001.34;;;1.59;100.00
10470;BME280;5282;47.052;15.458;2023-01-19T04:51:26;96009.44;;;1.58;100.00
10470;BME280;5282;47.052;15.458;2023-01-19T04:53:53;96023.00;;;1.54;100.00
10470;BME280;5282;47.052;15.458;2023-01-19T04:56:21;96016.47;;;1.49;100.00
10470;BME280;5282;47.052;15.458;2023-01-19T04:58:48;96030.66;;;1.58;100.00
10470;BME280;5282;47.052;15.458;2023-01-19T05:01:15;96028.34;;;1.45;100.00
10470;BME280;5282;47.052;15.458;2023-01-19T05:03:45;96021.47;;;1.52;100.00
10470;BME280;5282;47.052;15.458;2023-01-19T05:06:12;96020.88;;;1.58;100.00
10470;BME280;5282;47.052;15.458;2023-01-19T05:08:40;96020.66;;;1.51;100.00
10470;BME280;5282;47.052;15.458;2023-01-19T05:11:08;96019.72;;;1.43;100.00
10470;BME280;5282;47.052;15.458;2023-01-19T05:13:35;96017.38;;;1.58;100.00
10470;BME280;5282;47.052;15.458;2023-01-19T05:16:02;96030.41;;;1.51;100.00
10470;BME280;5282;47.052;15.458;2023-01-19T05:18:29;96033.63;;;1.54;100.00
10470;BME280;5282;47.052;15.458;2023-01-19T05:21:00;96034.72;;;1.52;100.00
10470;BME280;5282;47.052;15.458;2023-01-19T05:23:27;96051.94;;;1.48;100.00
10470;BME280;5282;47.052;15.458;2023-01-19T05:25:57;96059.13;;;1.56;100.00
10470;BME280;5282;47.052;15.458;2023-01-19T05:28:25;96062.91;;;1.63;100.00
10470;BME280;5282;47.052;15.458;2023-01-19T05:30:52;96064.84;;;1.61;100.00
10470;BME280;5282;47.052;15.458;2023-01-19T05:33:19;96067.50;;;1.61;100.00
10470;BME280;5282;47.052;15.458;2023-01-19T05:35:48;96069.47;;;1.59;100.00
10470;BME280;5282;47.052;15.458;2023-01-19T05:38:15;96069.22;;;1.52;100.00
10470;BME280;5282;47.052;15.458;2023-01-19T05:40:41;96069.66;;;1.47;100.00
10470;BME280;5282;47.052;15.458;2023-01-19T05:43:10;96056.81;;;1.52;100.00
10470;BME280;5282;47.052;15.458;2023-01-19T05:45:37;96048.66;;;1.64;100.00
10470;BME280;5282;47.052;15.458;2023-01-19T05:48:04;96046.69;;;1.66;100.00
10470;BME280;5282;47.052;15.458;2023-01-19T05:50:32;96048.25;;;1.59;100.00
10470;BME280;5282;47.052;15.458;2023-01-19T05:52:59;96044.91;;;1.57;100.00
10470;BME280;5282;47.052;15.458;2023-01-19T05:55:27;96042.66;;;1.62;100.00
10470;BME280;5282;47.052;15.458;2023-01-19T05:57:54;96044.56;;;1.69;100.00
10470;BME280;5282;47.052;15.458;2023-01-19T06:00:23;96038.94;;;1.54;100.00
10470;BME280;5282;47.052;15.458;2023-01-19T06:02:50;96041.19;;;1.49;100.00
10470;BME280;5282;47.052;15.458;2023-01-19T06:05:17;96054.97;;;1.53;100.00
10470;BME280;5282;47.052;15.458;2023-01-19T06:07:44;96053.94;;;1.64;100.00
10470;BME280;5282;47.052;15.458;2023-01-19T06:10:11;96065.06;;;1.77;100.00
10470;BME280;5282;47.052;15.458;2023-01-19T06:12:38;96064.84;;;1.61;100.00
10470;BME280;5282;47.052;15.458;2023-01-19T06:15:06;96077.72;;;1.56;100.00
10470;BME280;5282;47.052;15.458;2023-01-19T06:17:34;96080.63;;;1.62;100.00
10470;BME280;5282;47.052;15.458;2023-01-19T06:20:02;96083.59;;;1.59;100.00
10470;BME280;5282;47.052;15.458;2023-01-19T06:22:30;96086.31;;;1.67;100.00
10470;BME280;5282;47.052;15.458;2023-01-19T06:24:57;96078.63;;;1.74;100.00
10470;BME280;5282;47.052;15.458;2023-01-19T06:27:24;96078.00;;;1.80;100.00
10470;BME280;5282;47.052;15.458;2023-01-19T06:29:51;96093.94;;;1.80;100.00
10470;BME280;5282;47.052;15.458;2023-01-19T06:32:17;96086.94;;;1.79;100.00
10470;BME280;5282;47.052;15.458;2023-01-19T06:34:46;96111.63;;;1.62;100.00
10470;BME280;5282;47.052;15.458;2023-01-19T06:37:13;96112.88;;;1.67;100.00
10470;BME280;5282;47.052;15.458;2023-01-19T06:39:41;96111.91;;;1.59;100.00
10470;BME280;5282;47.052;15.458;2023-01-19T06:42:10;96126.31;;;1.56;100.00
10470;BME280;5282;47.052;15.458;2023-01-19T06:44:37;96119.88;;;1.59;100.00
10470;BME280;5282;47.052;15.458;2023-01-19T06:47:08;96121.25;;;1.63;100.00
10470;BME280;5282;47.052;15.458;2023-01-19T06:49:34;96120.66;;;1.69;100.00
10470;BME280;5282;47.052;15.458;2023-01-19T06:52:03;96123.31;;;1.69;100.00
10470;BME280;5282;47.052;15.458;2023-01-19T06:54:30;96131.44;;;1.67;100.00
10470;BME280;5282;47.052;15.458;2023-01-19T06:56:57;96127.19;;;1.75;100.00
10470;BME280;5282;47.052;15.458;2023-01-19T06:59:24;96135.03;;;1.76;100.00
10470;BME280;5282;47.052;15.458;2023-01-19T07:01:51;96120.47;;;1.80;100.00
10470;BME280;5282;47.052;15.458;2023-01-19T07:04:18;96129.13;;;1.82;100.00
10470;BME280;5282;47.052;15.458;2023-01-19T07:06:45;96129.50;;;1.60;100.00
10470;BME280;5282;47.052;15.458;2023-01-19T07:09:13;96121.97;;;1.65;100.00
10470;BME280;5282;47.052;15.458;2023-01-19T07:11:41;96127.34;;;1.73;100.00
10470;BME280;5282;47.052;15.458;2023-01-19T07:14:08;96137.19;;;1.63;100.00
10470;BME280;5282;47.052;15.458;2023-01-19T07:16:37;96131.69;;;1.74;100.00
10470;BME280;5282;47.052;15.458;2023-01-19T07:19:06;96130.09;;;1.81;100.00
10470;BME280;5282;47.052;15.458;2023-01-19T07:21:35;96135.13;;;1.84;100.00
10470;BME280;5282;47.052;15.458;2023-01-19T07:24:02;96151.06;;;1.84;100.00
10470;BME280;5282;47.052;15.458;2023-01-19T07:26:30;96148.25;;;1.58;100.00
10470;BME280;5282;47.052;15.458;2023-01-19T07:28:57;96155.94;;;1.79;100.00
10470;BME280;5282;47.052;15.458;2023-01-19T07:31:24;96161.41;;;1.78;100.00
10470;BME280;5282;47.052;15.458;2023-01-19T07:33:51;96167.56;;;1.78;100.00
10470;BME280;5282;47.052;15.458;2023-01-19T07:36:18;96182.81;;;1.76;100.00
10470;BME280;5282;47.052;15.458;2023-01-19T07:38:45;96179.81;;;1.89;100.00
10470;BME280;5282;47.052;15.458;2023-01-19T07:41:12;96188.47;;;1.91;100.00
10470;BME280;5282;47.052;15.458;2023-01-19T07:43:40;96195.47;;;1.82;100.00
10470;BME280;5282;47.052;15.458;2023-01-19T07:46:07;96196.59;;;1.90;100.00
10470;BME280;5282;47.052;15.458;2023-01-19T07:48:34;96196.47;;;1.81;100.00
10470;BME280;5282;47.052;15.458;2023-01-19T07:51:01;96195.56;;;1.91;100.00
10470;BME280;5282;47.052;15.458;2023-01-19T07:53:30;96202.28;;;1.95;100.00
10470;BME280;5282;47.052;15.458;2023-01-19T07:55:57;96211.22;;;1.94;100.00
10470;BME280;5282;47.052;15.458;2023-01-19T07:58:24;96215.97;;;2.00;100.00
10470;BME280;5282;47.052;15.458;2023-01-19T08:00:53;96222.50;;;2.06;100.00
10470;BME280;5282;47.052;15.458;2023-01-19T08:03:20;96224.59;;;2.02;100.00
10470;BME280;5282;47.052;15.458;2023-01-19T08:05:49;96226.97;;;2.05;100.00
10470;BME280;5282;47.052;15.458;2023-01-19T08:08:16;96221.53;;;2.07;100.00
10470;BME280;5282;47.052;15.458;2023-01-19T08:10:43;96221.81;;;2.04;100.00
10470;BME280;5282;47.052;15.458;2023-01-19T08:13:10;96214.97;;;2.01;100.00
10470;BME280;5282;47.052;15.458;2023-01-19T08:15:37;96229.22;;;2.00;100.00
10470;BME280;5282;47.052;15.458;2023-01-19T08:18:06;96231.00;;;2.09;100.00
10470;BME280;5282;47.052;15.458;2023-01-19T08:20:34;96227.88;;;2.24;100.00
10470;BME280;5282;47.052;15.458;2023-01-19T08:23:01;96233.03;;;2.25;100.00
10470;BME280;5282;47.052;15.458;2023-01-19T08:25:32;96238.78;;;2.21;100.00
10470;BME280;5282;47.052;15.458;2023-01-19T08:27:59;96231.19;;;2.26;100.00
10470;BME280;5282;47.052;15.458;2023-01-19T08:30:27;96236.25;;;2.19;100.00
10470;BME280;5282;47.052;15.458;2023-01-19T08:32:55;96235.16;;;2.22;100.00
10470;BME280;5282;47.052;15.458;2023-01-19T08:35:29;96234.84;;;2.25;100.00
10470;BME280;5282;47.052;15.458;2023-01-19T08:37:56;96225.03;;;2.35;100.00
10470;BME280;5282;47.052;15.458;2023-01-19T08:40:26;96230.00;;;2.38;100.00
10470;BME280;5282;47.052;15.458;2023-01-19T08:42:57;96227.88;;;2.24;100.00
10470;BME280;5282;47.052;15.458;2023-01-19T08:45:25;96237.34;;;2.26;100.00
10470;BME280;5282;47.052;15.458;2023-01-19T08:47:54;96238.97;;;2.37;100.00
10470;BME280;5282;47.052;15.458;2023-01-19T08:50:21;96240.75;;;2.46;100.00
10470;BME280;5282;47.052;15.458;2023-01-19T08:52:49;96245.38;;;2.44;100.00
10470;BME280;5282;47.052;15.458;2023-01-19T08:55:16;96246.72;;;2.49;100.00
10470;BME280;5282;47.052;15.458;2023-01-19T08:57:43;96248.13;;;2.53;100.00
10470;BME280;5282;47.052;15.458;2023-01-19T09:00:11;96250.09;;;2.51;100.00
10470;BME280;5282;47.052;15.458;2023-01-19T09:02:38;96247.66;;;2.57;100.00
10470;BME280;5282;47.052;15.458;2023-01-19T09:05:06;96249.19;;;2.60;100.00
10470;BME280;5282;47.052;15.458;2023-01-19T09:07:33;96254.13;;;2.55;100.00
10470;BME280;5282;47.052;15.458;2023-01-19T09:10:02;96263.00;;;2.45;100.00
10470;BME280;5282;47.052;15.458;2023-01-19T09:12:30;96261.50;;;2.61;100.00
10470;BME280;5282;47.052;15.458;2023-01-19T09:14:57;96258.00;;;2.60;97.25
10470;BME280;5282;47.052;15.458;2023-01-19T09:17:24;96259.41;;;2.65;99.83
10470;BME280;5282;47.052;15.458;2023-01-19T09:19:51;96255.69;;;2.47;91.57
10470;BME280;5282;47.052;15.458;2023-01-19T09:22:18;96262.47;;;2.60;99.97
10470;BME280;5282;47.052;15.458;2023-01-19T09:24:44;96258.34;;;2.75;99.31
10470;BME280;5282;47.052;15.458;2023-01-19T09:27:13;96264.50;;;2.76;99.65
10470;BME280;5282;47.052;15.458;2023-01-19T09:29:40;96274.00;;;2.78;100.00
10470;BME280;5282;47.052;15.458;2023-01-19T09:32:06;96273.34;;;2.67;100.00
10470;BME280;5282;47.052;15.458;2023-01-19T09:34:35;96278.69;;;2.85;100.00
10470;BME280;5282;47.052;15.458;2023-01-19T09:37:02;96273.47;;;3.11;98.46
10470;BME280;5282;47.052;15.458;2023-01-19T09:39:29;96278.72;;;3.03;100.00
10470;BME280;5282;47.052;15.458;2023-01-19T09:42:01;96275.56;;;2.89;93.54
10470;BME280;5282;47.052;15.458;2023-01-19T09:44:34;96278.00;;;2.65;86.98
10470;BME280;5282;47.052;15.458;2023-01-19T09:47:02;96279.34;;;2.69;90.90
10470;BME280;5282;47.052;15.458;2023-01-19T09:49:40;96287.09;;;2.62;97.48
10470;BME280;5282;47.052;15.458;2023-01-19T09:52:09;96290.97;;;2.68;100.00
10470;BME280;5282;47.052;15.458;2023-01-19T09:54:41;96286.53;;;2.86;99.76
10470;BME280;5282;47.052;15.458;2023-01-19T09:57:11;96285.09;;;2.92;91.71
10470;BME280;5282;47.052;15.458;2023-01-19T09:59:41;96290.59;;;2.62;90.95
10470;BME280;5282;47.052;15.458;2023-01-19T10:02:21;96288.66;;;3.01;100.00
10470;BME280;5282;47.052;15.458;2023-01-19T10:04:58;96296.19;;;3.05;100.00
10470;BME280;5282;47.052;15.458;2023-01-19T10:07:32;96298.69;;;2.89;97.19
10470;BME280;5282;47.052;15.458;2023-01-19T10:10:17;96296.50;;;3.02;92.27
10470;BME280;5282;47.052;15.458;2023-01-19T10:12:59;96292.00;;;3.03;100.00
10470;BME280;5282;47.052;15.458;2023-01-19T10:15:39;96299.53;;;3.26;100.00
10470;BME280;5282;47.052;15.458;2023-01-19T10:18:12;96298.94;;;3.32;96.15
10470;BME280;5282;47.052;15.458;2023-01-19T10:20:42;96302.88;;;3.46;100.00
10470;BME280;5282;47.052;15.458;2023-01-19T10:23:20;96309.19;;;3.63;100.00
10470;BME280;5282;47.052;15.458;2023-01-19T10:25:49;96301.44;;;3.51;90.99
10470;BME280;5282;47.052;15.458;2023-01-19T10:28:18;96302.94;;;3.54;93.29
10470;BME280;5282;47.052;15.458;2023-01-19T10:30:50;96304.31;;;3.58;93.82
10470;BME280;5282;47.052;15.458;2023-01-19T10:33:19;96304.25;;;3.14;84.50
10470;BME280;5282;47.052;15.458;2023-01-19T10:35:46;96311.53;;;2.93;86.90
10470;BME280;5282;47.052;15.458;2023-01-19T10:38:14;96300.84;;;3.03;94.69
10470;BME280;5282;47.052;15.458;2023-01-19T10:40:51;96305.78;;;3.16;92.99
10470;BME280;5282;47.052;15.458;2023-01-19T10:43:38;96313.38;;;2.93;86.31
10470;BME280;5282;47.052;15.458;2023-01-19T10:46:25;96309.81;;;3.02;90.61
10470;BME280;5282;47.052;15.458;2023-01-19T10:48:53;96313.66;;;2.90;88.81
10470;BME280;5282;47.052;15.458;2023-01-19T10:51:21;96319.25;;;2.87;90.10
10470;BME280;5282;47.052;15.458;2023-01-19T10:53:57;96317.22;;;2.81;91.79
10470;BME280;5282;47.052;15.458;2023-01-19T10:56:27;96324.22;;;2.82;95.93
10470;BME280;5282;47.052;15.458;2023-01-19T10:58:56;96325.75;;;2.74;87.32
10470;BME280;5282;47.052;15.458;2023-01-19T11:01:26;96322.53;;;2.53;87.29
10470;BME280;5282;47.052;15.458;2023-01-19T11:03:55;96326.06;;;2.43;87.89
10470;BME280;5282;47.052;15.458;2023-01-19T11:06:31;96331.50;;;2.42;91.67
10470;BME280;5282;47.052;15.458;2023-01-19T11:09:12;96324.19;;;2.54;92.08
10470;BME280;5282;47.052;15.458;2023-01-19T11:11:42;96329.22;;;2.57;99.77
10470;BME280;5282;47.052;15.458;2023-01-19T11:14:12;96324.97;;;2.64;98.00
10470;BME280;5282;47.052;15.458;2023-01-19T11:16:46;96336.59;;;2.35;90.25
10470;BME280;5282;47.052;15.458;2023-01-19T11:19:19;96329.47;;;2.26;92.06
10470;BME280;5282;47.052;15.458;2023-01-19T11:21:47;96340.22;;;2.34;92.85
10470;BME280;5282;47.052;15.458;2023-01-19T11:24:14;96340.09;;;2.26;91.94
10470;BME280;5282;47.052;15.458;2023-01-19T11:26:44;96340.47;;;2.41;96.37
10470;BME280;5282;47.052;15.458;2023-01-19T11:29:17;96342.38;;;2.49;93.12
10470;BME280;5282;47.052;15.458;2023-01-19T11:31:47;96345.91;;;2.49;93.40
10470;BME280;5282;47.052;15.458;2023-01-19T11:34:26;96343.63;;;2.54;99.28
10470;BME280;5282;47.052;15.458;2023-01-19T11:36:57;96351.47;;;2.18;95.79
10470;BME280;5282;47.052;15.458;2023-01-19T11:39:26;96351.03;;;2.23;98.18
10470;BME280;5282;47.052;15.458;2023-01-19T11:41:55;96357.00;;;2.35;98.99
10470;BME280;5282;47.052;15.458;2023-01-19T11:44:25;96357.53;;;2.38;100.00
10470;BME280;5282;47.052;15.458;2023-01-19T11:46:56;96367.81;;;2.13;100.00
10470;BME280;5282;47.052;15.458;2023-01-19T11:49:31;96362.38;;;2.15;100.00
10470;BME280;5282;47.052;15.458;2023-01-19T11:52:06;96368.22;;;2.09;100.00
10470;BME280;5282;47.052;15.458;2023-01-19T11:54:42;96370.06;;;2.08;100.00
10470;BME280;5282;47.052;15.458;2023-01-19T11:57:15;96367.94;;;2.22;100.00
10470;BME280;5282;47.052;15.458;2023-01-19T11:59:43;96384.41;;;2.35;100.00
10470;BME280;5282;47.052;15.458;2023-01-19T12:02:17;96371.66;;;2.39;100.00
10470;BME280;5282;47.052;15.458;2023-01-19T12:04:49;96376.00;;;2.30;100.00
10470;BME280;5282;47.052;15.458;2023-01-19T12:07:22;96378.22;;;2.44;100.00
10470;BME280;5282;47.052;15.458;2023-01-19T12:09:54;96383.53;;;2.44;100.00
10470;BME280;5282;47.052;15.458;2023-01-19T12:12:27;96384.06;;;2.58;100.00
10470;BME280;5282;47.052;15.458;2023-01-19T12:14:59;96381.38;;;2.58;100.00
10470;BME280;5282;47.052;15.458;2023-01-19T12:17:33;96394.19;;;2.25;100.00
10470;BME280;5282;47.052;15.458;2023-01-19T12:20:06;96390.00;;;2.32;100.00
10470;BME280;5282;47.052;15.458;2023-01-19T12:22:44;96392.81;;;2.21;100.00
10470;BME280;5282;47.052;15.458;2023-01-19T12:25:19;96395.59;;;2.29;100.00
10470;BME280;5282;47.052;15.458;2023-01-19T12:27:48;96401.97;;;2.46;100.00
10470;BME280;5282;47.052;15.458;2023-01-19T12:30:19;96409.22;;;2.54;100.00
10470;BME280;5282;47.052;15.458;2023-01-19T12:32:48;96405.56;;;2.65;100.00
10470;BME280;5282;47.052;15.458;2023-01-19T12:35:53;96413.41;;;2.56;100.00
10470;BME280;5282;47.052;15.458;2023-01-19T12:38:39;96407.22;;;2.66;100.00
10470;BME280;5282;47.052;15.458;2023-01-19T12:41:19;96409.03;;;2.65;100.00
10470;BME280;5282;47.052;15.458;2023-01-19T12:43:48;96408.50;;;2.61;100.00
10470;BME280;5282;47.052;15.458;2023-01-19T12:46:35;96398.50;;;2.45;100.00
10470;BME280;5282;47.052;15.458;2023-01-19T12:49:09;96402.25;;;2.43;100.00
10470;BME280;5282;47.052;15.458;2023-01-19T12:51:38;96405.28;;;2.10;100.00
10470;BME280;5282;47.052;15.458;2023-01-19T12:54:06;96399.00;;;2.02;100.00
10470;BME280;5282;47.052;15.458;2023-01-19T12:56:35;96400.13;;;1.99;100.00
10470;BME280;5282;47.052;15.458;2023-01-19T12:59:04;96401.94;;;1.69;100.00
10470;BME280;5282;47.052;15.458;2023-01-19T13:01:31;96401.38;;;1.95;100.00
10470;BME280;5282;47.052;15.458;2023-01-19T13:04:02;96398.72;;;1.95;100.00
10470;BME280;5282;47.052;15.458;2023-01-19T13:09:37;96396.91;;;2.05;100.00
10470;BME280;5282;47.052;15.458;2023-01-19T13:12:18;96404.88;;;1.76;100.00
10470;BME280;5282;47.052;15.458;2023-01-19T13:14:46;96408.53;;;1.65;100.00
10470;BME280;5282;47.052;15.458;2023-01-19T13:17:32;96418.03;;;1.77;100.00
10470;BME280;5282;47.052;15.458;2023-01-19T13:20:24;96416.88;;;2.09;100.00